createdAt,value
2019-05-22T07:42:38.054Z,98623.73
2019-05-22T07:44:42.295Z,98616.61
2019-05-22T07:46:46.173Z,98623.74
2019-05-22T07:48:50.299Z,98625.95
2019-05-22T07:50:55.293Z,98619.36
2019-05-22T07:52:59.556Z,98612.27
2019-05-22T07:55:05.680Z,98615.27
2019-05-22T07:57:10.609Z,98615.81
2019-05-22T07:59:14.910Z,98612.28
2019-05-22T08:01:20.200Z,98616.94
2019-05-22T08:03:24.954Z,98617.19
2019-05-22T08:05:30.076Z,98623.51
2019-05-22T08:07:36.167Z,98622.97
2019-05-22T08:09:42.563Z,98625.19
2019-05-22T08:11:48.238Z,98629.84
2019-05-22T08:13:53.349Z,98621.34
2019-05-22T08:15:57.789Z,98623.01
2019-05-22T08:18:02.261Z,98627.13
2019-05-22T08:20:06.900Z,98620.57
2019-05-22T08:22:11.015Z,98624.41
2019-05-22T08:24:15.138Z,98629.06
2019-05-22T08:26:20.910Z,98625.49
2019-05-22T08:28:25.673Z,98627.98
2019-05-22T08:30:30.381Z,98620.59
2019-05-22T08:32:36.525Z,98626.33
2019-05-22T08:34:41.778Z,98625.80
2019-05-22T08:36:48.584Z,98627.17
2019-05-22T08:38:53.468Z,98631.83
2019-05-22T08:40:59.216Z,98635.97
2019-05-22T08:43:02.960Z,98634.89
2019-05-22T08:45:08.388Z,98630.48
2019-05-22T08:47:12.350Z,98640.66
2019-05-22T08:49:16.941Z,98641.45
2019-05-22T08:51:21.350Z,98629.69
2019-05-22T08:53:25.798Z,98641.45
2019-05-22T08:55:30.125Z,98640.09
2019-05-22T08:57:36.895Z,98641.20
2019-05-22T08:59:40.848Z,98640.09
2019-05-22T09:01:44.572Z,98643.66
2019-05-22T09:03:48.736Z,98645.31
2019-05-22T09:05:52.995Z,98651.89
2019-05-22T09:07:56.703Z,98657.13
2019-05-22T09:10:00.556Z,98658.20
2019-05-22T09:12:05.289Z,98658.75
2019-05-22T09:14:09.043Z,98659.58
2019-05-22T09:16:14.434Z,98659.87
2019-05-22T09:18:18.978Z,98664.23
2019-05-22T09:20:23.147Z,98660.95
2019-05-22T09:22:40.096Z,98663.16
2019-05-22T09:24:34.118Z,98663.41
2019-05-22T09:26:38.648Z,98666.98
2019-05-22T09:28:42.537Z,98664.23
2019-05-22T09:30:46.541Z,98664.78
2019-05-22T09:32:50.618Z,98662.61
2019-05-22T09:34:54.768Z,98668.09
2019-05-22T09:36:58.430Z,98667.52
2019-05-22T09:39:02.178Z,98666.15
2019-05-22T09:41:06.151Z,98670.01
2019-05-22T09:43:09.826Z,98664.78
2019-05-22T09:45:15.006Z,98665.06
2019-05-22T09:47:23.164Z,98662.60
2019-05-22T09:49:27.438Z,98670.00
2019-05-22T09:51:32.060Z,98665.34
2019-05-22T09:53:38.027Z,98669.18
2019-05-22T09:55:46.933Z,98670.84
2019-05-22T09:57:47.855Z,98677.13
2019-05-22T09:59:51.648Z,98674.95
2019-05-22T10:01:55.433Z,98666.44
2019-05-22T10:03:59.811Z,98672.20
2019-05-22T10:06:04.680Z,98676.03
2019-05-22T10:08:08.867Z,98673.00
2019-05-22T10:10:13.468Z,98676.86
2019-05-22T10:12:17.346Z,98681.23
2019-05-22T10:14:21.371Z,98682.89
2019-05-22T10:16:25.290Z,98673.82
2019-05-22T10:18:29.124Z,98676.29
2019-05-22T10:20:32.911Z,98674.89
2019-05-22T10:22:37.475Z,98678.14
2019-05-22T10:24:41.285Z,98674.28
2019-05-22T10:26:45.459Z,98670.11
2019-05-22T10:28:49.455Z,98670.59
2019-05-22T10:30:54.450Z,98675.75
2019-05-22T10:32:59.230Z,98677.38
2019-05-22T10:35:03.251Z,98675.99
2019-05-22T10:37:09.235Z,98672.95
2019-05-22T10:39:13.021Z,98679.55
2019-05-22T10:41:17.924Z,98682.29
2019-05-22T10:43:21.803Z,98673.73
2019-05-22T10:45:25.869Z,98676.75
2019-05-22T10:47:30.015Z,98679.72
2019-05-22T10:49:33.726Z,98676.95
2019-05-22T10:51:38.037Z,98683.25
2019-05-22T10:53:42.088Z,98680.20
2019-05-22T10:55:45.957Z,98684.63
2019-05-22T10:57:49.883Z,98683.80
2019-05-22T10:59:53.554Z,98688.77
2019-05-22T11:01:57.626Z,98686.34
2019-05-22T11:04:01.727Z,98685.25
2019-05-22T11:06:07.804Z,98684.73
2019-05-22T11:08:11.617Z,98688.05
2019-05-22T11:10:16.882Z,98680.09
2019-05-22T11:12:20.775Z,98686.68
2019-05-22T11:14:24.514Z,98692.48
2019-05-22T11:16:28.643Z,98694.95
2019-05-22T11:18:32.632Z,98690.58
2019-05-22T11:20:37.140Z,98692.22
2019-05-22T11:22:40.925Z,98690.86
2019-05-22T11:24:44.801Z,98694.99
2019-05-22T11:26:48.595Z,98698.03
2019-05-22T11:28:53.153Z,98700.25
2019-05-22T11:30:57.591Z,98698.31
2019-05-22T11:33:01.961Z,98699.16
2019-05-22T11:35:06.311Z,98698.92
2019-05-22T11:37:10.478Z,98707.43
2019-05-22T11:39:16.806Z,98703.59
2019-05-22T11:41:20.654Z,98704.70
2019-05-22T11:43:25.076Z,98706.91
2019-05-22T11:45:29.744Z,98711.58
2019-05-22T11:47:33.541Z,98711.58
2019-05-22T11:49:37.419Z,98713.23
2019-05-22T11:51:59.191Z,98704.44
2019-05-22T11:54:09.138Z,98710.47
2019-05-22T11:56:08.935Z,98705.80
2019-05-22T11:58:12.781Z,98710.16
2019-05-22T12:00:18.492Z,98712.66
2019-05-22T12:02:23.474Z,98713.20
2019-05-22T12:04:27.374Z,98713.45
2019-05-22T12:06:31.580Z,98707.95
2019-05-22T12:08:36.982Z,98714.56
2019-05-22T12:10:41.322Z,98715.93
2019-05-22T12:12:45.573Z,98717.83
2019-05-22T12:14:49.729Z,98715.35
2019-05-22T12:16:53.543Z,98720.80
2019-05-22T12:18:58.924Z,98719.63
2019-05-22T12:21:03.351Z,98724.23
2019-05-22T12:23:07.307Z,98718.41
2019-05-22T12:25:14.668Z,98728.52
2019-05-22T12:27:18.461Z,98714.20
2019-05-22T12:29:22.466Z,98724.65
2019-05-22T12:31:26.371Z,98721.06
2019-05-22T12:33:30.625Z,98724.39
2019-05-22T12:35:35.728Z,98718.32
2019-05-22T12:40:56.872Z,98726.08
2019-05-22T12:43:01.433Z,98729.41
2019-05-22T12:45:06.663Z,98729.42
2019-05-22T12:47:11.550Z,98734.09
2019-05-22T12:49:16.147Z,98738.77
2019-05-22T12:51:21.065Z,98737.39
2019-05-22T12:53:25.526Z,98733.81
2019-05-22T12:55:29.559Z,98734.41
2019-05-22T12:57:33.942Z,98744.05
2019-05-22T12:59:38.401Z,98738.28
2019-05-22T13:01:42.880Z,98741.89
2019-05-22T13:03:48.421Z,98740.23
2019-05-22T13:05:52.365Z,98739.15
2019-05-22T13:07:56.950Z,98738.32
2019-05-22T13:10:00.910Z,98733.91
2019-05-22T13:12:05.463Z,98731.16
2019-05-22T13:14:09.403Z,98734.20
2019-05-22T13:16:14.101Z,98725.63
2019-05-22T13:18:20.247Z,98730.86
2019-05-22T13:20:41.767Z,98730.83
2019-05-22T13:22:36.391Z,98728.86
2019-05-22T13:24:40.753Z,98728.50
2019-05-22T13:26:46.005Z,98720.17
2019-05-22T13:28:49.950Z,98715.86
2019-05-22T13:30:55.713Z,98718.14
2019-05-22T13:33:01.699Z,98719.91
2019-05-22T13:35:06.965Z,98715.14
2019-05-22T13:37:12.286Z,98710.66
2019-05-22T13:39:17.600Z,98716.66
2019-05-22T13:41:21.593Z,98713.05
2019-05-22T13:43:27.281Z,98706.44
2019-05-22T13:45:32.411Z,98702.50
2019-05-22T13:47:36.572Z,98708.66
2019-05-22T13:49:41.128Z,98706.58
2019-05-22T13:51:45.704Z,98699.52
2019-05-22T13:53:50.212Z,98705.48
2019-05-22T13:55:54.132Z,98707.07
2019-05-22T13:57:58.619Z,98709.00
2019-05-22T14:00:02.631Z,98704.03
2019-05-22T14:02:06.578Z,98702.11
2019-05-22T14:04:10.440Z,98711.03
2019-05-22T14:06:15.505Z,98718.30
2019-05-22T14:08:19.376Z,98713.77
2019-05-22T14:10:26.865Z,98718.06
2019-05-22T14:12:30.788Z,98715.70
2019-05-22T14:14:34.501Z,98719.15
2019-05-22T14:16:48.565Z,98721.98
2019-05-22T14:18:45.133Z,98718.20
2019-05-22T14:20:49.975Z,98729.05
2019-05-22T14:22:53.948Z,98728.81
2019-05-22T14:24:58.984Z,98730.23
2019-05-22T14:27:03.063Z,98728.61
2019-05-22T14:29:07.016Z,98731.97
2019-05-22T14:31:11.020Z,98742.16
2019-05-22T14:33:15.655Z,98738.58
2019-05-22T14:35:20.059Z,98740.80
2019-05-22T14:37:24.176Z,98744.41
2019-05-22T14:39:29.415Z,98740.30
2019-05-22T14:41:33.586Z,98742.77
2019-05-22T14:43:38.450Z,98740.03
2019-05-22T14:45:43.365Z,98739.23
2019-05-22T14:47:47.522Z,98741.45
2019-05-22T14:49:51.401Z,98738.72
2019-05-22T14:51:56.663Z,98738.19
2019-05-22T14:54:00.488Z,98740.94
2019-05-22T14:56:04.870Z,98739.81
2019-05-22T14:58:09.938Z,98744.51
2019-05-22T15:00:19.534Z,98744.23
2019-05-22T15:02:24.351Z,98749.75
2019-05-22T15:04:29.934Z,98741.80
2019-05-22T15:06:34.150Z,98744.81
2019-05-22T15:08:38.210Z,98752.53
2019-05-22T15:10:42.268Z,98743.44
2019-05-22T15:12:46.256Z,98744.56
2019-05-22T15:14:50.256Z,98752.24
2019-05-22T15:16:53.962Z,98746.19
2019-05-22T15:18:57.874Z,98747.02
2019-05-22T15:21:05.966Z,98745.34
2019-05-22T15:23:10.880Z,98751.68
2019-05-22T15:25:15.134Z,98747.00
2019-05-22T15:27:19.353Z,98756.92
2019-05-22T15:29:23.217Z,98749.75
2019-05-22T15:31:27.226Z,98765.42
2019-05-22T15:33:31.783Z,98755.23
2019-05-22T15:35:35.904Z,98755.77
2019-05-22T15:37:40.915Z,98758.50
2019-05-22T15:39:44.851Z,98759.88
2019-05-22T15:41:49.319Z,98759.61
2019-05-22T15:43:53.831Z,98762.09
2019-05-22T15:45:58.930Z,98761.01
2019-05-22T15:48:08.046Z,98769.54
2019-05-22T15:50:13.066Z,98765.70
2019-05-22T15:52:18.364Z,98769.03
2019-05-22T15:54:23.257Z,98764.91
2019-05-22T15:56:30.307Z,98764.64
2019-05-22T15:58:34.990Z,98767.41
2019-05-22T16:00:40.965Z,98758.35
2019-05-22T16:02:48.743Z,98764.67
2019-05-22T16:04:54.019Z,98760.54
2019-05-22T16:06:58.759Z,98766.03
2019-05-22T16:09:04.093Z,98762.75
2019-05-22T16:11:10.853Z,98766.59
2019-05-22T16:13:18.528Z,98764.09
2019-05-22T16:15:25.129Z,98757.20
2019-05-22T16:17:30.921Z,98766.30
2019-05-22T16:19:36.683Z,98763.84
2019-05-22T16:21:45.842Z,98768.52
2019-05-22T16:23:50.443Z,98761.92
2019-05-22T16:25:54.535Z,98765.53
2019-05-22T16:27:59.435Z,98766.38
2019-05-22T16:30:04.206Z,98761.72
2019-05-22T16:32:10.071Z,98768.05
2019-05-22T16:34:15.215Z,98763.95
2019-05-22T16:36:20.810Z,98762.88
2019-05-22T16:38:25.375Z,98768.69
2019-05-22T16:40:29.834Z,98772.00
2019-05-22T16:42:34.700Z,98765.39
2019-05-22T16:44:41.470Z,98764.27
2019-05-22T16:46:46.799Z,98770.08
2019-05-22T16:48:51.881Z,98769.25
2019-05-22T16:50:55.840Z,98767.32
2019-05-22T16:53:02.486Z,98772.25
2019-05-22T16:55:06.947Z,98774.77
2019-05-22T16:57:11.486Z,98773.95
2019-05-22T16:59:15.697Z,98778.61
2019-05-22T17:01:21.677Z,98780.27
2019-05-22T17:03:27.427Z,98790.15
2019-05-22T17:05:31.812Z,98784.92
2019-05-22T17:07:36.223Z,98783.25
2019-05-22T17:09:41.782Z,98781.61
2019-05-22T17:11:46.021Z,98790.16
2019-05-22T17:13:50.781Z,98791.80
2019-05-22T17:15:54.658Z,98794.84
2019-05-22T17:17:58.641Z,98789.89
2019-05-22T17:20:03.238Z,98790.97
2019-05-22T17:22:07.755Z,98794.00
2019-05-22T17:24:14.995Z,98797.30
2019-05-22T17:26:19.198Z,98805.01
2019-05-22T17:28:23.184Z,98804.73
2019-05-22T17:30:28.370Z,98797.59
2019-05-22T17:32:32.908Z,98802.53
2019-05-22T17:34:38.348Z,98805.58
2019-05-22T17:36:42.940Z,98803.13
2019-05-22T17:38:46.906Z,98809.17
2019-05-22T17:40:50.953Z,98805.59
2019-05-22T17:42:59.169Z,98808.62
2019-05-22T17:45:04.685Z,98812.76
2019-05-22T17:47:10.382Z,98809.42
2019-05-22T17:49:15.114Z,98816.30
2019-05-22T17:51:19.965Z,98808.62
2019-05-22T17:53:24.468Z,98806.11
2019-05-22T17:55:28.673Z,98807.50
2019-05-22T17:57:33.053Z,98808.05
2019-05-22T17:59:36.781Z,98806.67
2019-05-22T18:01:41.356Z,98807.80
2019-05-22T18:03:45.425Z,98807.27
2019-05-22T18:05:49.646Z,98810.03
2019-05-22T18:07:53.782Z,98810.84
2019-05-22T18:09:57.729Z,98813.05
2019-05-22T18:12:01.918Z,98813.36
2019-05-22T18:14:07.380Z,98820.80
2019-05-22T18:16:11.562Z,98820.52
2019-05-22T18:18:15.670Z,98814.48
2019-05-22T18:20:20.044Z,98820.83
2019-05-22T18:22:23.840Z,98817.80
2019-05-22T18:24:27.719Z,98821.38
2019-05-22T18:26:31.572Z,98817.80
2019-05-22T18:28:36.390Z,98816.17
2019-05-22T18:30:41.540Z,98820.57
2019-05-22T18:32:45.426Z,98823.08
2019-05-22T18:34:49.183Z,98818.67
2019-05-22T18:36:53.006Z,98826.11
2019-05-22T18:38:57.335Z,98826.11
2019-05-22T18:41:01.134Z,98829.44
2019-05-22T18:43:05.223Z,98827.24
2019-05-22T18:45:10.201Z,98828.34
2019-05-22T18:47:14.204Z,98831.92
2019-05-22T18:49:18.091Z,98836.34
2019-05-22T18:51:21.904Z,98839.09
2019-05-22T18:53:25.785Z,98839.36
2019-05-22T18:55:29.680Z,98842.95
2019-05-22T18:57:35.524Z,98842.41
2019-05-22T18:59:39.285Z,98852.29
2019-05-22T19:01:43.158Z,98849.55
2019-05-22T19:03:47.311Z,98848.47
2019-05-22T19:05:51.255Z,98850.39
2019-05-22T19:07:55.760Z,98849.30
2019-05-22T19:09:59.662Z,98855.06
2019-05-22T19:12:03.493Z,98850.08
2019-05-22T19:14:07.457Z,98863.02
2019-05-22T19:16:11.839Z,98866.30
2019-05-22T19:18:15.882Z,98861.62
2019-05-22T19:20:19.805Z,98868.74
2019-05-22T19:22:25.075Z,98867.91
2019-05-22T19:24:29.018Z,98871.48
2019-05-22T19:29:23.311Z,98871.47
2019-05-22T19:31:27.532Z,98877.48
2019-05-22T19:33:31.326Z,98881.88
2019-05-22T19:35:35.200Z,98886.52
2019-05-22T19:37:39.668Z,98888.69
2019-05-22T19:39:44.928Z,98892.50
2019-05-22T19:42:01.456Z,98891.67
2019-05-22T19:43:54.417Z,98896.84
2019-05-22T19:45:58.327Z,98896.53
2019-05-22T19:48:02.444Z,98901.75
2019-05-22T19:50:22.330Z,98901.98
2019-05-22T19:52:14.161Z,98901.73
2019-05-22T19:54:18.400Z,98901.98
2019-05-22T19:56:23.761Z,98904.17
2019-05-22T19:58:28.214Z,98902.25
2019-05-22T20:00:33.778Z,98905.23
2019-05-22T20:02:37.575Z,98910.72
2019-05-22T20:04:41.794Z,98909.88
2019-05-22T20:06:45.659Z,98908.22
2019-05-22T20:08:49.754Z,98914.82
2019-05-22T20:10:53.631Z,98912.36
2019-05-22T20:12:57.602Z,98914.06
2019-05-22T20:15:01.612Z,98916.80
2019-05-22T20:17:05.615Z,98913.47
2019-05-22T20:19:10.561Z,98912.86
2019-05-22T20:21:14.621Z,98920.52
2019-05-22T20:23:32.961Z,98917.20
2019-05-22T20:25:25.592Z,98915.80
2019-05-22T20:27:29.495Z,98915.25
2019-05-22T20:29:33.753Z,98920.14
2019-05-22T20:31:37.786Z,98920.95
2019-05-22T20:33:42.655Z,98916.30
2019-05-22T20:35:46.470Z,98912.70
2019-05-22T20:37:50.353Z,98915.41
2019-05-22T20:39:54.216Z,98918.11
2019-05-22T20:41:58.723Z,98919.45
2019-05-22T20:44:03.791Z,98923.81
2019-05-22T20:46:07.603Z,98922.66
2019-05-22T20:48:17.259Z,98916.89
2019-05-22T20:50:24.030Z,98923.44
2019-05-22T20:52:29.909Z,98923.72
2019-05-22T20:54:34.367Z,98927.31
2019-05-22T20:56:40.324Z,98921.55
2019-05-22T20:58:51.623Z,98926.50
2019-05-22T21:00:55.934Z,98931.68
2019-05-22T21:03:03.914Z,98930.29
2019-05-22T21:05:11.354Z,98929.22
2019-05-22T21:07:17.975Z,98932.52
2019-05-22T21:09:22.681Z,98933.34
2019-05-22T21:11:27.158Z,98933.88
2019-05-22T21:13:30.967Z,98934.14
2019-05-22T21:15:35.107Z,98934.09
2019-05-22T21:17:39.560Z,98936.00
2019-05-22T21:19:43.680Z,98931.58
2019-05-22T21:21:48.222Z,98930.72
2019-05-22T21:23:52.597Z,98932.08
2019-05-22T21:25:56.583Z,98938.12
2019-05-22T21:28:00.976Z,98943.30
2019-05-22T21:30:07.255Z,98940.27
2019-05-22T21:32:11.732Z,98935.06
2019-05-22T21:34:15.995Z,98936.11
2019-05-22T21:36:20.393Z,98934.50
2019-05-22T21:38:24.622Z,98932.84
2019-05-22T21:40:28.485Z,98926.48
2019-05-22T21:42:32.471Z,98926.46
2019-05-22T21:44:37.149Z,98930.03
2019-05-22T21:46:41.961Z,98928.38
2019-05-22T21:48:48.123Z,98929.42
2019-05-22T21:50:51.991Z,98934.02
2019-05-22T21:52:56.377Z,98926.88
2019-05-22T21:55:00.312Z,98933.41
2019-05-22T21:57:06.790Z,98932.28
2019-05-22T21:59:11.733Z,98929.52
2019-05-22T22:01:29.973Z,98933.03
2019-05-22T22:03:40.728Z,98936.06
2019-05-22T22:05:45.950Z,98934.99
2019-05-22T22:07:50.271Z,98931.12
2019-05-22T22:09:54.084Z,98935.20
2019-05-22T22:11:58.499Z,98938.42
2019-05-22T22:14:02.315Z,98946.84
2019-05-22T22:16:07.564Z,98945.72
2019-05-22T22:18:12.068Z,98951.16
2019-05-22T22:20:16.661Z,98942.89
2019-05-22T22:22:28.205Z,98945.33
2019-05-22T22:24:32.199Z,98948.04
2019-05-22T22:26:36.349Z,98950.45
2019-05-22T22:28:40.533Z,98956.98
2019-05-22T22:30:49.989Z,98955.80
2019-05-22T22:32:55.974Z,98957.37
2019-05-22T22:34:59.803Z,98957.53
2019-05-22T22:37:04.047Z,98948.17
2019-05-22T22:39:11.834Z,98951.37
2019-05-22T22:41:16.472Z,98954.27
2019-05-22T22:43:21.689Z,98952.80
2019-05-22T22:45:38.839Z,98951.06
2019-05-22T22:47:44.582Z,98953.72
2019-05-22T22:49:48.885Z,98957.70
2019-05-22T22:51:53.118Z,98952.70
2019-05-22T22:53:57.382Z,98952.42
2019-05-22T22:56:02.302Z,98957.55
2019-05-22T22:58:17.340Z,98949.89
2019-05-22T23:00:17.079Z,98953.15
2019-05-22T23:02:24.285Z,98950.88
2019-05-22T23:04:29.571Z,98955.46
2019-05-22T23:06:36.364Z,98949.16
2019-05-22T23:08:40.719Z,98954.09
2019-05-22T23:10:47.346Z,98958.11
2019-05-22T23:12:54.198Z,98952.88
2019-05-22T23:15:01.771Z,98961.21
2019-05-22T23:17:06.876Z,98962.99
2019-05-22T23:19:32.005Z,98967.31
2019-05-22T23:21:35.999Z,98965.55
2019-05-22T23:23:38.722Z,98973.42
2019-05-22T23:25:43.064Z,98965.02
2019-05-22T23:27:46.977Z,98975.98
2019-05-22T23:29:51.549Z,98971.63
2019-05-22T23:31:56.811Z,98980.61
2019-05-22T23:34:01.833Z,98976.48
2019-05-22T23:36:05.832Z,98973.74
2019-05-22T23:38:09.767Z,98975.38
2019-05-22T23:40:18.542Z,98977.75
2019-05-22T23:42:29.628Z,98973.88
2019-05-22T23:44:35.763Z,98978.19
2019-05-22T23:46:39.742Z,98984.22
2019-05-22T23:48:43.698Z,98977.92
2019-05-22T23:50:49.919Z,98976.52
2019-05-22T23:52:54.187Z,98979.94
2019-05-22T23:54:59.352Z,98978.66
2019-05-22T23:57:03.174Z,98973.06
2019-05-22T23:59:07.226Z,98972.14
